Time;durP1;ratioP1;P1;durP2;ratioP2;P2;SDS_P1;SDS_P2;PMS_P1;PMS_P2;Temp;Humidity;BMP_temperature;BMP_pressure;BME280_temperature;BME280_humidity;BME280_pressure;Samples;Min_cycle;Max_cycle;Signal;HPM_P1;HPM_P2
2022/03/25 00:00:10;;;;;;;;;0.00;0.00;18.90;99.90;;;;;;5079690;28;8980;-46
2022/03/25 00:02:44;;;;;;;;;0.00;0.00;18.90;99.90;;;;;;5076764;28;9920;-43
2022/03/25 00:05:15;;;;;;;;;0.00;0.00;18.90;99.90;;;;;;5070706;28;9920;-44
2022/03/25 00:07:45;;;;;;;;;0.00;0.00;18.80;99.90;;;;;;5075189;28;9403;-44
2022/03/25 00:10:17;;;;;;;;;0.00;0.00;18.80;99.90;;;;;;5081910;28;9154;-47
2022/03/25 00:12:48;;;;;;;;;0.00;0.00;18.80;99.90;;;;;;5088565;28;9176;-47
2022/03/25 00:15:18;;;;;;;;;0.00;0.00;18.70;99.90;;;;;;5082104;28;9367;-46
2022/03/25 00:17:48;;;;;;;;;0.00;0.00;18.70;99.90;;;;;;5070812;28;9632;-47
2022/03/25 00:20:20;;;;;;;;;0.00;0.00;18.70;99.90;;;;;;5077369;28;9323;-43
2022/03/25 00:22:52;;;;;;;;;1.00;1.00;18.70;99.90;;;;;;5076427;28;9226;-47
2022/03/25 00:25:23;;;;;;;;;0.00;0.00;18.70;99.90;;;;;;5067185;28;9347;-47
2022/03/25 00:27:54;;;;;;;;;0.00;0.00;18.60;99.90;;;;;;5085290;28;9361;-45
2022/03/25 00:30:24;;;;;;;;;1.00;0.00;18.50;99.90;;;;;;5074037;28;9509;-44
2022/03/25 00:32:55;;;;;;;;;0.00;0.00;18.50;99.90;;;;;;5077471;28;9316;-46
2022/03/25 00:35:26;;;;;;;;;0.00;0.00;18.50;99.90;;;;;;5080797;28;9669;-46
2022/03/25 00:37:58;;;;;;;;;0.00;0.00;18.50;99.90;;;;;;5082897;28;9535;-47
2022/03/25 00:40:32;;;;;;;;;0.00;0.00;18.40;99.90;;;;;;5084978;28;9609;-48
2022/03/25 00:43:06;;;;;;;;;0.00;0.00;18.30;99.90;;;;;;5076182;28;9667;-47
2022/03/25 00:45:38;;;;;;;;;1.00;1.00;18.20;99.90;;;;;;5078645;28;9877;-46
2022/03/25 00:48:07;;;;;;;;;1.50;1.50;18.20;99.90;;;;;;5067267;28;10066;-47
2022/03/25 00:50:38;;;;;;;;;4.00;4.00;18.20;99.90;;;;;;5067804;28;10353;-46
2022/03/25 00:53:10;;;;;;;;;4.75;4.75;18.20;99.90;;;;;;5076686;28;11064;-45
2022/03/25 00:55:42;;;;;;;;;5.50;5.50;18.10;99.90;;;;;;5068505;28;10284;-44
2022/03/25 00:58:14;;;;;;;;;17.25;17.25;18.10;99.90;;;;;;5074455;28;10376;-47
2022/03/25 01:00:46;;;;;;;;;19.25;19.25;18.00;99.90;;;;;;5068982;28;11491;-45
2022/03/25 01:03:18;;;;;;;;;14.50;14.50;18.00;99.90;;;;;;5079800;28;11534;-48
2022/03/25 01:05:50;;;;;;;;;0.00;0.00;17.80;99.90;;;;;;5065122;28;10784;-48
2022/03/25 01:08:21;;;;;;;;;0.00;0.00;17.60;99.90;;;;;;5066383;28;9874;-45
2022/03/25 01:10:52;;;;;;;;;0.00;0.00;17.60;99.90;;;;;;5071491;27;9809;-46
2022/03/25 01:13:23;;;;;;;;;0.00;0.00;17.60;99.90;;;;;;5071457;28;9704;-45
2022/03/25 01:15:53;;;;;;;;;0.00;0.00;17.50;99.90;;;;;;5070564;28;9629;-47
2022/03/25 01:18:23;;;;;;;;;0.75;0.00;17.30;99.90;;;;;;5071680;28;10071;-47
2022/03/25 01:20:55;;;;;;;;;0.50;0.50;17.30;99.90;;;;;;5070396;28;10074;-47
2022/03/25 01:23:27;;;;;;;;;1.25;1.25;17.30;99.90;;;;;;5065009;28;10361;-45
2022/03/25 01:25:57;;;;;;;;;6.50;4.50;17.30;99.90;;;;;;5075420;28;10647;-46
2022/03/25 01:28:32;;;;;;;;;11.75;11.75;17.00;99.90;;;;;;5078853;28;10750;-44
2022/03/25 01:31:04;;;;;;;;;17.25;17.25;17.00;99.90;;;;;;5075948;28;11588;-44
2022/03/25 01:33:37;;;;;;;;;16.00;16.00;17.00;99.90;;;;;;5073765;28;10999;-46
2022/03/25 01:36:10;;;;;;;;;7.25;6.50;16.80;99.90;;;;;;5082086;28;10926;-46
2022/03/25 01:38:44;;;;;;;;;2.75;2.75;16.90;99.90;;;;;;5081792;28;10977;-45
2022/03/25 01:41:17;;;;;;;;;0.00;0.00;16.90;99.90;;;;;;5073067;28;10931;-46
2022/03/25 01:43:55;;;;;;;;;0.00;0.00;16.80;99.90;;;;;;5076260;28;10565;-44
2022/03/25 01:46:26;;;;;;;;;0.00;0.00;16.80;99.90;;;;;;5075668;28;9972;-48
2022/03/25 01:48:57;;;;;;;;;0.75;0.75;16.70;99.90;;;;;;5068924;28;10713;-42
2022/03/25 01:51:35;;;;;;;;;0.00;0.00;16.50;99.90;;;;;;5067729;28;10119;-43
2022/03/25 01:54:15;;;;;;;;;0.00;0.00;16.50;99.90;;;;;;5067629;28;10215;-45
2022/03/25 01:56:49;;;;;;;;;0.00;0.00;16.50;99.90;;;;;;5077408;28;10242;-44
2022/03/25 01:59:20;;;;;;;;;0.00;0.00;16.50;99.90;;;;;;5079176;28;10308;-44
2022/03/25 02:01:51;;;;;;;;;0.00;0.00;16.30;99.90;;;;;;5073036;28;10877;-45
2022/03/25 02:04:23;;;;;;;;;0.00;0.00;16.10;99.90;;;;;;5078301;28;10460;-46
2022/03/25 02:06:54;;;;;;;;;1.00;0.00;16.10;99.90;;;;;;5074761;28;10851;-45
2022/03/25 02:09:30;;;;;;;;;0.00;0.00;16.10;99.90;;;;;;5086005;28;10511;-45
2022/03/25 02:12:02;;;;;;;;;0.00;0.00;16.00;99.90;;;;;;5080175;28;10251;-44
2022/03/25 02:14:33;;;;;;;;;0.00;0.00;16.10;99.90;;;;;;5082244;28;10101;-44
2022/03/25 02:17:05;;;;;;;;;0.00;0.00;16.10;99.90;;;;;;5078827;28;10450;-46
2022/03/25 02:19:37;;;;;;;;;0.00;0.00;16.20;99.90;;;;;;5085700;28;10853;-47
2022/03/25 02:22:08;;;;;;;;;0.00;0.00;16.20;99.90;;;;;;5078055;28;10474;-47
2022/03/25 02:24:40;;;;;;;;;0.00;0.00;16.10;99.90;;;;;;5075001;28;10346;-46
2022/03/25 02:27:13;;;;;;;;;0.00;0.00;16.00;99.90;;;;;;5083396;28;10365;-45
2022/03/25 02:29:46;;;;;;;;;0.00;0.00;16.00;99.90;;;;;;5083448;28;10355;-45
2022/03/25 02:32:17;;;;;;;;;0.00;0.00;15.90;99.90;;;;;;5084761;28;10270;-45
2022/03/25 02:34:48;;;;;;;;;0.00;0.00;15.90;99.90;;;;;;5084501;28;10351;-46
2022/03/25 02:37:19;;;;;;;;;0.00;0.00;15.80;99.90;;;;;;5085122;28;10521;-44
2022/03/25 02:39:50;;;;;;;;;0.00;0.00;15.90;99.90;;;;;;5082879;28;10456;-47
2022/03/25 02:42:19;;;;;;;;;0.00;0.00;15.90;99.90;;;;;;5071248;28;10644;-46
2022/03/25 02:44:50;;;;;;;;;0.00;0.00;16.00;99.90;;;;;;5081833;28;10491;-47
2022/03/25 02:47:20;;;;;;;;;0.00;0.00;16.00;99.90;;;;;;5076999;28;11350;-46
2022/03/25 02:49:52;;;;;;;;;0.25;0.00;15.90;99.90;;;;;;5086796;28;10613;-47
2022/03/25 02:52:22;;;;;;;;;0.00;0.00;15.70;99.90;;;;;;5078513;28;10577;-45
2022/03/25 02:54:53;;;;;;;;;0.00;0.00;15.70;99.90;;;;;;5084506;28;10589;-46
2022/03/25 02:57:23;;;;;;;;;0.00;0.00;15.60;99.90;;;;;;5080816;28;10804;-44
2022/03/25 02:59:54;;;;;;;;;0.00;0.00;15.70;99.90;;;;;;5077818;28;10560;-45
2022/03/25 03:02:25;;;;;;;;;0.00;0.00;15.60;99.90;;;;;;5083143;28;11437;-45
2022/03/25 03:04:55;;;;;;;;;0.00;0.00;15.60;99.90;;;;;;5078731;28;10557;-44
2022/03/25 03:07:26;;;;;;;;;0.00;0.00;15.60;99.90;;;;;;5072214;28;10551;-45
2022/03/25 03:09:55;;;;;;;;;0.00;0.00;15.60;99.90;;;;;;5070272;28;10583;-45
2022/03/25 03:12:25;;;;;;;;;0.00;0.00;15.60;99.90;;;;;;5078654;28;10493;-44
2022/03/25 03:14:57;;;;;;;;;0.00;0.00;15.60;99.90;;;;;;5067316;28;10938;-44
2022/03/25 03:17:29;;;;;;;;;0.00;0.00;15.60;99.90;;;;;;5070172;28;10866;-43
2022/03/25 03:20:00;;;;;;;;;0.00;0.00;15.60;99.90;;;;;;5076604;28;10692;-46
2022/03/25 03:22:31;;;;;;;;;0.00;0.00;15.40;99.90;;;;;;5079318;28;10631;-46
2022/03/25 03:25:03;;;;;;;;;0.00;0.00;15.50;99.90;;;;;;5078038;28;10514;-44
2022/03/25 03:27:33;;;;;;;;;0.00;0.00;15.50;99.90;;;;;;5074337;28;11582;-44
2022/03/25 03:30:09;;;;;;;;;0.00;0.00;15.50;99.90;;;;;;5076367;28;10796;-44
2022/03/25 03:32:40;;;;;;;;;0.00;0.00;15.50;99.90;;;;;;5075592;28;11349;-46
2022/03/25 03:35:11;;;;;;;;;0.00;0.00;15.40;99.90;;;;;;5072882;28;10665;-44
2022/03/25 03:37:45;;;;;;;;;0.00;0.00;15.40;99.90;;;;;;5074663;28;10783;-44
2022/03/25 03:40:17;;;;;;;;;0.00;0.00;15.40;99.90;;;;;;5085379;28;10933;-47
2022/03/25 03:42:49;;;;;;;;;0.00;0.00;15.40;99.90;;;;;;5074941;28;10679;-44
2022/03/25 03:45:20;;;;;;;;;0.00;0.00;15.40;99.90;;;;;;5089677;28;10746;-45
2022/03/25 03:47:53;;;;;;;;;0.00;0.00;15.30;99.90;;;;;;5069337;28;10742;-43
2022/03/25 03:50:22;;;;;;;;;0.00;0.00;15.30;99.90;;;;;;5074805;28;10736;-45
2022/03/25 03:52:53;;;;;;;;;0.25;0.25;15.30;99.90;;;;;;5076885;28;10966;-48
2022/03/25 03:55:24;;;;;;;;;0.75;0.75;15.30;99.90;;;;;;5080674;28;10731;-44
2022/03/25 03:58:13;;;;;;;;;0.00;0.00;15.20;99.90;;;;;;5076613;28;10795;-44
2022/03/25 04:00:43;;;;;;;;;0.00;0.00;15.20;99.90;;;;;;5073658;28;10951;-45
2022/03/25 04:03:14;;;;;;;;;2.00;2.00;15.20;99.90;;;;;;5074457;28;11243;-43
2022/03/25 04:05:45;;;;;;;;;1.00;1.00;15.10;99.90;;;;;;5084449;28;11715;-44
2022/03/25 04:08:16;;;;;;;;;1.00;1.00;15.10;99.90;;;;;;5074084;28;10923;-46
2022/03/25 04:10:46;;;;;;;;;1.00;1.00;15.10;99.90;;;;;;5071680;28;11046;-44
2022/03/25 04:13:18;;;;;;;;;0.00;0.00;15.10;99.90;;;;;;5076133;28;10950;-43
2022/03/25 04:15:49;;;;;;;;;1.00;1.00;15.10;99.90;;;;;;5090081;28;10903;-44
2022/03/25 04:18:23;;;;;;;;;0.00;0.00;15.10;99.90;;;;;;5072654;28;10894;-43
2022/03/25 04:20:54;;;;;;;;;1.00;1.00;14.90;99.90;;;;;;5069905;28;10903;-44
2022/03/25 04:23:25;;;;;;;;;0.00;0.00;14.90;99.90;;;;;;5075111;28;10826;-42
2022/03/25 04:25:55;;;;;;;;;1.50;1.50;14.90;99.90;;;;;;5074011;28;10936;-46
2022/03/25 04:28:30;;;;;;;;;2.00;0.25;14.80;99.90;;;;;;5085174;28;11025;-44
2022/03/25 04:31:06;;;;;;;;;0.50;0.50;14.80;99.90;;;;;;5075020;28;11053;-44
2022/03/25 04:33:37;;;;;;;;;0.00;0.00;14.70;99.90;;;;;;5069726;28;11049;-44
2022/03/25 04:36:08;;;;;;;;;0.50;0.50;14.70;99.90;;;;;;5075170;28;10874;-43
2022/03/25 04:38:38;;;;;;;;;0.00;0.00;14.80;99.90;;;;;;5080342;28;11098;-44
2022/03/25 04:41:10;;;;;;;;;1.00;1.00;14.80;99.90;;;;;;5075765;28;10953;-44
2022/03/25 04:43:40;;;;;;;;;1.00;1.00;14.80;99.90;;;;;;5079276;28;10874;-45
2022/03/25 04:46:11;;;;;;;;;0.50;0.50;14.90;99.90;;;;;;5075681;28;10916;-44
2022/03/25 04:48:42;;;;;;;;;1.00;1.00;14.70;99.90;;;;;;5076451;28;11086;-45
2022/03/25 04:51:13;;;;;;;;;0.00;0.00;14.70;99.90;;;;;;5076242;28;10893;-45
2022/03/25 04:53:44;;;;;;;;;0.50;0.50;14.70;99.90;;;;;;5068880;28;11482;-45
2022/03/25 04:56:14;;;;;;;;;0.50;0.50;14.70;99.90;;;;;;5071771;28;10936;-44
2022/03/25 04:58:45;;;;;;;;;1.00;1.00;14.70;99.90;;;;;;5074546;28;11197;-45
2022/03/25 05:01:17;;;;;;;;;0.00;0.00;14.70;99.90;;;;;;5072506;28;11557;-44
2022/03/25 05:03:47;;;;;;;;;1.00;1.00;14.70;99.90;;;;;;5074471;28;11024;-47
2022/03/25 05:06:18;;;;;;;;;1.25;1.00;14.70;99.90;;;;;;5076802;28;11118;-46
2022/03/25 05:08:49;;;;;;;;;0.75;0.75;14.70;99.90;;;;;;5075321;28;11455;-45
2022/03/25 05:11:20;;;;;;;;;1.00;0.00;14.70;99.90;;;;;;5068355;28;10944;-44
2022/03/25 05:13:51;;;;;;;;;1.00;1.00;14.70;99.90;;;;;;5069389;28;11089;-46
2022/03/25 05:16:20;;;;;;;;;1.00;1.00;14.70;99.90;;;;;;5070444;28;11231;-44
2022/03/25 05:18:52;;;;;;;;;1.00;1.00;14.60;99.90;;;;;;5074782;28;11051;-43
2022/03/25 05:21:23;;;;;;;;;0.50;0.50;14.60;99.90;;;;;;5076520;28;11029;-43
2022/03/25 05:23:54;;;;;;;;;1.00;1.00;14.60;99.90;;;;;;5071912;28;11245;-45
2022/03/25 05:26:25;;;;;;;;;2.00;1.00;14.60;99.90;;;;;;5082548;28;11901;-43
2022/03/25 05:28:56;;;;;;;;;0.00;0.00;14.60;99.90;;;;;;5076293;28;11153;-44
2022/03/25 05:31:26;;;;;;;;;0.00;0.00;14.60;99.90;;;;;;5074321;28;10969;-44
2022/03/25 05:33:56;;;;;;;;;1.00;1.00;14.50;99.90;;;;;;5078185;28;10960;-43
2022/03/25 05:36:27;;;;;;;;;0.75;0.75;14.50;99.90;;;;;;5073190;28;11765;-45
2022/03/25 05:38:58;;;;;;;;;0.50;0.50;14.50;99.90;;;;;;5073626;28;11061;-44
2022/03/25 05:41:29;;;;;;;;;0.00;0.00;14.40;99.90;;;;;;5073429;28;10968;-44
2022/03/25 05:44:00;;;;;;;;;2.00;2.00;14.50;99.90;;;;;;5084584;28;11003;-46
2022/03/25 05:46:31;;;;;;;;;0.00;0.00;14.50;99.90;;;;;;5071412;28;11872;-44
2022/03/25 05:49:03;;;;;;;;;1.00;1.00;14.50;99.90;;;;;;5076425;28;11009;-44
2022/03/25 05:51:33;;;;;;;;;1.00;1.00;14.50;99.90;;;;;;5083558;28;10987;-43
2022/03/25 05:54:05;;;;;;;;;0.00;0.00;14.50;99.90;;;;;;5078416;28;11361;-44
2022/03/25 05:56:38;;;;;;;;;1.00;1.00;14.40;99.90;;;;;;5080066;28;10904;-42
2022/03/25 05:59:09;;;;;;;;;0.00;0.00;14.40;99.90;;;;;;5082658;28;11035;-44
2022/03/25 06:01:40;;;;;;;;;1.50;1.00;14.30;99.90;;;;;;5073783;28;11039;-47
2022/03/25 06:04:10;;;;;;;;;0.00;0.00;14.30;99.90;;;;;;5077607;28;11430;-45
2022/03/25 06:06:40;;;;;;;;;0.50;0.50;14.30;99.90;;;;;;5080815;28;10938;-45
2022/03/25 06:09:10;;;;;;;;;2.00;0.75;14.30;99.90;;;;;;5080473;28;11484;-44
2022/03/25 06:11:43;;;;;;;;;1.00;1.00;14.30;99.90;;;;;;5076462;28;11200;-44
2022/03/25 06:14:13;;;;;;;;;1.75;0.75;14.30;99.90;;;;;;5085021;28;11075;-44
2022/03/25 06:16:44;;;;;;;;;0.00;0.00;14.30;99.90;;;;;;5069348;28;11462;-43
2022/03/25 06:19:17;;;;;;;;;2.75;1.25;14.30;99.90;;;;;;5076990;28;11619;-45
2022/03/25 06:21:48;;;;;;;;;1.75;1.75;14.20;99.90;;;;;;5073238;28;11451;-45
2022/03/25 06:24:18;;;;;;;;;2.00;2.00;14.30;99.90;;;;;;5090441;28;11433;-43
2022/03/25 06:26:49;;;;;;;;;2.00;2.00;14.30;99.90;;;;;;5082157;28;11091;-45
2022/03/25 06:29:20;;;;;;;;;1.00;1.00;14.30;99.90;;;;;;5078556;28;11297;-46
2022/03/25 06:31:49;;;;;;;;;1.00;1.00;14.30;99.90;;;;;;5082710;28;10941;-46
2022/03/25 06:34:23;;;;;;;;;0.00;0.00;14.30;99.90;;;;;;5069967;28;12185;-47
2022/03/25 06:36:53;;;;;;;;;2.00;2.00;14.30;99.90;;;;;;5082040;28;11586;-44
2022/03/25 06:39:24;;;;;;;;;2.00;2.00;14.20;99.90;;;;;;5082140;28;12235;-48
2022/03/25 06:41:55;;;;;;;;;2.50;2.50;14.20;99.90;;;;;;5080098;28;11306;-44
2022/03/25 06:44:26;;;;;;;;;1.00;1.00;14.30;99.90;;;;;;5070010;28;11107;-44
2022/03/25 06:46:57;;;;;;;;;3.00;3.00;14.30;99.90;;;;;;5069198;28;11456;-46
2022/03/25 06:49:27;;;;;;;;;2.00;2.00;14.20;99.90;;;;;;5076247;28;11478;-45
2022/03/25 06:51:57;;;;;;;;;2.25;2.25;14.20;99.90;;;;;;5090846;28;12210;-44
2022/03/25 06:54:28;;;;;;;;;2.00;2.00;14.20;99.90;;;;;;5082743;28;11616;-45
2022/03/25 06:56:59;;;;;;;;;2.25;2.25;14.20;99.90;;;;;;5088609;28;11430;-43
2022/03/25 06:59:30;;;;;;;;;2.50;2.50;14.20;99.90;;;;;;5073546;28;11431;-44
2022/03/25 07:02:02;;;;;;;;;3.50;3.50;14.20;99.90;;;;;;5075371;28;11972;-44
2022/03/25 07:04:33;;;;;;;;;2.00;2.00;14.20;99.90;;;;;;5075011;28;11463;-45
2022/03/25 07:07:05;;;;;;;;;2.00;2.00;14.10;99.90;;;;;;5074465;28;11464;-44
2022/03/25 07:09:36;;;;;;;;;2.00;2.00;14.10;99.90;;;;;;5076925;28;11423;-43
2022/03/25 07:12:07;;;;;;;;;2.75;2.75;14.10;99.90;;;;;;5073993;28;12218;-45
2022/03/25 07:14:37;;;;;;;;;3.00;3.00;14.10;99.90;;;;;;5076680;28;11506;-45
2022/03/25 07:17:08;;;;;;;;;3.25;3.25;14.10;99.90;;;;;;5062374;28;11495;-45
2022/03/25 07:19:39;;;;;;;;;4.50;2.00;14.10;99.90;;;;;;5079163;28;11460;-45
2022/03/25 07:22:10;;;;;;;;;2.25;2.25;14.00;99.90;;;;;;5068621;28;12274;-44
2022/03/25 07:24:41;;;;;;;;;4.75;4.75;14.10;99.90;;;;;;5076636;28;12141;-44
2022/03/25 07:27:11;;;;;;;;;4.00;4.00;14.10;99.90;;;;;;5085162;28;11426;-44
2022/03/25 07:29:41;;;;;;;;;5.00;5.00;14.10;99.90;;;;;;5076329;28;11524;-45
2022/03/25 07:32:11;;;;;;;;;3.25;3.25;14.10;99.90;;;;;;5073328;28;11462;-43
2022/03/25 07:34:42;;;;;;;;;3.25;3.25;14.10;99.90;;;;;;5075451;28;11448;-44
2022/03/25 07:37:12;;;;;;;;;4.00;4.00;14.00;99.90;;;;;;5078977;28;11586;-48
2022/03/25 07:39:44;;;;;;;;;5.00;5.00;14.00;99.90;;;;;;5075952;28;11484;-44
2022/03/25 07:42:19;;;;;;;;;4.75;4.75;14.00;99.90;;;;;;5072723;28;11491;-43
2022/03/25 07:44:51;;;;;;;;;7.00;7.00;14.00;99.90;;;;;;5071791;28;12143;-44
2022/03/25 07:47:20;;;;;;;;;4.00;4.00;14.00;99.90;;;;;;5079506;28;11430;-43
2022/03/25 07:49:51;;;;;;;;;5.00;5.00;14.00;99.90;;;;;;5070087;28;11463;-46
2022/03/25 07:52:22;;;;;;;;;6.00;5.00;14.00;99.90;;;;;;5082219;28;11448;-44
2022/03/25 07:54:59;;;;;;;;;3.00;3.00;14.00;99.90;;;;;;5082505;28;11456;-43
2022/03/25 07:57:29;;;;;;;;;6.00;6.00;13.90;99.90;;;;;;5077346;28;11436;-46
2022/03/25 08:00:03;;;;;;;;;5.00;5.00;14.00;99.90;;;;;;5069615;28;11467;-43
2022/03/25 08:02:34;;;;;;;;;3.00;3.00;14.00;99.90;;;;;;5074420;28;11456;-44
2022/03/25 08:05:09;;;;;;;;;4.00;4.00;13.90;99.90;;;;;;5083348;28;11462;-45
2022/03/25 08:07:44;;;;;;;;;4.00;4.00;13.90;99.90;;;;;;5078387;28;12240;-43
2022/03/25 08:10:16;;;;;;;;;3.00;3.00;13.90;99.90;;;;;;5072860;28;11487;-44
2022/03/25 08:12:47;;;;;;;;;2.25;2.25;13.90;99.90;;;;;;5068194;28;11483;-45
2022/03/25 08:15:18;;;;;;;;;3.00;3.00;13.90;99.90;;;;;;5077704;28;11454;-44
2022/03/25 08:17:57;;;;;;;;;3.00;3.00;13.90;99.90;;;;;;5071314;28;11475;-46
2022/03/25 08:20:39;;;;;;;;;1.00;1.00;13.90;99.90;;;;;;5075915;27;12162;-45
2022/03/25 08:23:12;;;;;;;;;2.00;2.00;13.90;99.90;;;;;;5081532;28;11427;-47
2022/03/25 08:28:31;;;;;;;;;1.25;1.25;13.90;99.90;;;;;;5074820;28;11464;-46
2022/03/25 08:31:03;;;;;;;;;3.00;3.00;13.90;99.90;;;;;;5073394;28;11843;-46
2022/03/25 08:33:33;;;;;;;;;2.00;2.00;13.90;99.90;;;;;;5073359;28;12555;-43
2022/03/25 08:36:04;;;;;;;;;3.00;3.00;13.90;99.90;;;;;;5078280;28;11407;-43
2022/03/25 08:38:35;;;;;;;;;4.25;4.25;13.80;99.90;;;;;;5076596;28;11436;-43
2022/03/25 08:41:06;;;;;;;;;2.25;2.25;13.80;99.90;;;;;;5075791;28;11480;-43
2022/03/25 08:43:37;;;;;;;;;3.00;3.00;13.70;99.90;;;;;;5070014;28;12022;-44
2022/03/25 08:46:08;;;;;;;;;4.50;4.50;13.70;99.90;;;;;;5070311;28;11458;-44
2022/03/25 08:48:39;;;;;;;;;2.50;2.50;13.70;99.90;;;;;;5078666;28;11432;-45
2022/03/25 08:51:10;;;;;;;;;2.75;2.75;13.70;99.90;;;;;;5070326;28;11457;-44
2022/03/25 08:53:41;;;;;;;;;3.75;3.75;13.70;99.90;;;;;;5079766;28;12217;-44
2022/03/25 08:56:12;;;;;;;;;3.00;3.00;13.70;99.90;;;;;;5067301;28;11582;-44
2022/03/25 08:58:43;;;;;;;;;4.00;4.00;13.70;99.90;;;;;;5076076;28;11462;-44
2022/03/25 09:01:13;;;;;;;;;4.50;4.50;13.70;99.90;;;;;;5076704;28;11430;-44
2022/03/25 09:03:44;;;;;;;;;2.25;2.25;13.70;99.90;;;;;;5086096;28;11460;-44
2022/03/25 09:06:14;;;;;;;;;5.25;4.00;13.80;99.90;;;;;;5072226;28;11460;-45
2022/03/25 09:08:45;;;;;;;;;3.00;3.00;13.70;99.90;;;;;;5071267;28;11471;-42
2022/03/25 09:11:14;;;;;;;;;3.00;3.00;13.70;99.90;;;;;;5066839;28;11503;-45
2022/03/25 09:13:45;;;;;;;;;4.00;2.25;13.70;99.90;;;;;;5083104;28;11498;-43
2022/03/25 09:16:16;;;;;;;;;2.00;2.00;13.70;99.90;;;;;;5081736;28;11475;-43
2022/03/25 09:18:47;;;;;;;;;1.00;1.00;13.70;99.90;;;;;;5061809;28;11462;-43
2022/03/25 09:21:18;;;;;;;;;1.25;1.25;13.60;99.90;;;;;;5075476;28;11422;-43
2022/03/25 09:23:47;;;;;;;;;1.00;1.00;13.60;99.90;;;;;;5081314;28;11412;-46
2022/03/25 09:26:17;;;;;;;;;0.25;0.25;13.60;99.90;;;;;;5081891;28;11415;-43
2022/03/25 09:28:47;;;;;;;;;1.00;1.00;13.50;99.90;;;;;;5081947;28;11412;-42
2022/03/25 09:31:18;;;;;;;;;0.00;0.00;13.50;99.90;;;;;;5070570;28;11833;-43
2022/03/25 09:36:59;;;;;;;;;0.00;0.00;13.40;99.90;;;;;;5081032;28;11451;-44
2022/03/25 09:39:30;;;;;;;;;0.00;0.00;13.40;99.90;;;;;;5072125;28;11034;-43
2022/03/25 09:42:01;;;;;;;;;0.00;0.00;13.40;99.90;;;;;;5080164;28;11499;-45
2022/03/25 09:44:32;;;;;;;;;0.00;0.00;13.30;99.90;;;;;;5081006;28;11437;-43
2022/03/25 09:47:03;;;;;;;;;0.00;0.00;13.30;99.90;;;;;;5079912;28;11172;-43
2022/03/25 09:49:34;;;;;;;;;0.00;0.00;13.40;99.90;;;;;;5077579;28;11447;-44
2022/03/25 09:52:06;;;;;;;;;0.00;0.00;13.40;99.90;;;;;;5079224;28;11396;-43
2022/03/25 09:54:56;;;;;;;;;0.00;0.00;13.30;99.90;;;;;;5079191;28;12201;-43
2022/03/25 09:57:26;;;;;;;;;0.00;0.00;13.40;99.90;;;;;;5088325;28;11406;-44
2022/03/25 09:59:58;;;;;;;;;0.00;0.00;13.40;99.90;;;;;;5079602;28;11462;-43
2022/03/25 10:02:29;;;;;;;;;0.00;0.00;13.40;99.90;;;;;;5072710;28;11434;-47
2022/03/25 10:04:59;;;;;;;;;0.00;0.00;13.30;99.90;;;;;;5070318;28;11450;-48
2022/03/25 10:07:31;;;;;;;;;0.00;0.00;13.30;99.90;;;;;;5077487;28;11444;-43
2022/03/25 10:10:14;;;;;;;;;0.00;0.00;13.30;99.90;;;;;;5070763;28;11407;-45
2022/03/25 10:13:07;;;;;;;;;0.25;0.25;13.30;99.90;;;;;;5083664;28;11989;-46
2022/03/25 10:15:39;;;;;;;;;0.00;0.00;13.20;99.90;;;;;;5078285;28;11416;-46
2022/03/25 10:18:10;;;;;;;;;0.00;0.00;13.20;99.90;;;;;;5076938;28;11475;-43
2022/03/25 10:20:42;;;;;;;;;0.00;0.00;13.20;99.90;;;;;;5073543;28;11507;-45
2022/03/25 10:23:17;;;;;;;;;0.00;0.00;13.30;99.90;;;;;;5078020;28;11426;-42
2022/03/25 10:25:55;;;;;;;;;0.00;0.00;13.30;99.90;;;;;;5073285;28;11415;-47
2022/03/25 10:28:30;;;;;;;;;0.00;0.00;13.30;99.90;;;;;;5083481;28;11446;-44
2022/03/25 10:31:12;;;;;;;;;0.00;0.00;13.30;99.90;;;;;;5072109;28;11419;-45
2022/03/25 10:33:54;;;;;;;;;0.75;0.75;13.30;99.90;;;;;;5086216;28;11457;-46
2022/03/25 10:36:25;;;;;;;;;0.00;0.00;13.40;99.90;;;;;;5086545;28;11407;-43
2022/03/25 10:39:01;;;;;;;;;0.00;0.00;13.40;99.90;;;;;;5074491;28;11472;-44
2022/03/25 10:41:49;;;;;;;;;0.00;0.00;13.30;99.90;;;;;;5071065;28;11820;-44
2022/03/25 10:44:34;;;;;;;;;0.00;0.00;13.30;99.90;;;;;;5077087;28;11443;-45
2022/03/25 10:47:15;;;;;;;;;0.00;0.00;13.30;99.90;;;;;;5069991;28;11475;-45
2022/03/25 10:49:48;;;;;;;;;0.50;0.50;13.30;99.90;;;;;;5078360;28;11477;-42
2022/03/25 10:52:36;;;;;;;;;0.00;0.00;13.20;99.90;;;;;;5071093;28;11975;-47
2022/03/25 10:55:16;;;;;;;;;0.00;0.00;13.20;99.90;;;;;;5071684;28;11480;-44
2022/03/25 10:57:54;;;;;;;;;0.00;0.00;13.10;99.90;;;;;;5074682;28;11484;-42
2022/03/25 11:00:26;;;;;;;;;1.00;1.00;13.10;99.90;;;;;;5075890;28;11700;-44
2022/03/25 11:02:56;;;;;;;;;0.00;0.00;13.10;99.90;;;;;;5070518;28;11454;-44
2022/03/25 11:05:28;;;;;;;;;1.00;1.00;13.10;99.90;;;;;;5071581;28;11424;-44
2022/03/25 11:08:00;;;;;;;;;0.75;0.75;13.10;99.90;;;;;;5068956;28;11441;-45
2022/03/25 11:10:33;;;;;;;;;1.50;1.00;13.20;99.90;;;;;;5075611;28;11409;-45
2022/03/25 11:13:04;;;;;;;;;0.75;0.75;13.20;99.90;;;;;;5073196;28;11424;-44
2022/03/25 11:15:37;;;;;;;;;1.00;1.00;13.20;99.90;;;;;;5074054;28;11464;-44
2022/03/25 11:18:08;;;;;;;;;1.00;1.00;13.20;99.90;;;;;;5072221;28;11420;-44
2022/03/25 11:20:40;;;;;;;;;0.00;0.00;13.10;99.90;;;;;;5067941;28;11491;-43
2022/03/25 11:23:24;;;;;;;;;0.00;0.00;13.00;99.90;;;;;;5077087;28;11820;-43
2022/03/25 11:25:58;;;;;;;;;0.00;0.00;13.00;99.90;;;;;;5077435;28;11562;-43
2022/03/25 11:28:32;;;;;;;;;0.00;0.00;13.10;99.90;;;;;;5070951;28;11566;-44
2022/03/25 11:31:07;;;;;;;;;0.00;0.00;13.10;99.90;;;;;;5067736;27;11133;-43
2022/03/25 11:34:05;;;;;;;;;0.00;0.00;12.90;99.90;;;;;;5072498;28;11480;-44
2022/03/25 11:36:40;;;;;;;;;2.00;0.00;13.00;99.90;;;;;;5073735;28;11427;-42
2022/03/25 11:39:21;;;;;;;;;0.00;0.00;13.00;99.90;;;;;;5067727;28;11446;-47
2022/03/25 11:41:53;;;;;;;;;0.00;0.00;13.00;99.90;;;;;;5080376;28;11730;-43
2022/03/25 11:44:25;;;;;;;;;0.00;0.00;13.00;99.90;;;;;;5070065;28;11612;-44
2022/03/25 11:46:59;;;;;;;;;0.00;0.00;13.00;99.90;;;;;;5072207;28;11086;-44
2022/03/25 11:49:31;;;;;;;;;0.00;0.00;13.00;99.90;;;;;;5075244;28;11456;-45
2022/03/25 11:52:22;;;;;;;;;0.00;0.00;13.00;99.90;;;;;;5076334;28;11475;-45
2022/03/25 11:54:59;;;;;;;;;0.00;0.00;13.00;99.90;;;;;;5080782;28;11560;-45
2022/03/25 11:57:35;;;;;;;;;0.00;0.00;12.90;99.90;;;;;;5082443;28;11591;-44
2022/03/25 12:00:10;;;;;;;;;0.00;0.00;12.90;99.90;;;;;;5077984;28;11986;-46
2022/03/25 12:03:00;;;;;;;;;0.00;0.00;12.90;99.90;;;;;;5082346;28;11397;-44
2022/03/25 12:05:34;;;;;;;;;0.00;0.00;12.90;99.90;;;;;;5076484;28;11438;-45
2022/03/25 12:08:28;;;;;;;;;0.00;0.00;12.90;99.90;;;;;;5074415;28;12221;-42
2022/03/25 12:11:00;;;;;;;;;0.00;0.00;12.90;99.90;;;;;;5084062;28;11447;-46
2022/03/25 12:13:56;;;;;;;;;0.00;0.00;12.90;99.90;;;;;;5079419;28;11439;-43
2022/03/25 12:16:47;;;;;;;;;0.00;0.00;12.80;99.90;;;;;;5079168;28;11440;-43
2022/03/25 12:19:27;;;;;;;;;0.00;0.00;12.80;99.90;;;;;;5076760;27;11392;-43
2022/03/25 12:22:01;;;;;;;;;0.00;0.00;12.80;99.90;;;;;;5073726;28;12152;-44
2022/03/25 12:24:34;;;;;;;;;0.00;0.00;12.80;99.90;;;;;;5075182;27;11460;-47
2022/03/25 12:27:07;;;;;;;;;0.00;0.00;12.80;99.90;;;;;;5073780;28;11466;-45
2022/03/25 12:29:43;;;;;;;;;0.00;0.00;12.80;99.90;;;;;;5080459;28;11409;-45
2022/03/25 12:32:15;;;;;;;;;0.00;0.00;12.80;99.90;;;;;;5076402;28;11397;-46
2022/03/25 12:35:11;;;;;;;;;0.00;0.00;12.80;99.90;;;;;;5076697;28;11514;-44
2022/03/25 12:37:46;;;;;;;;;0.00;0.00;12.80;99.90;;;;;;5073742;28;11563;-45
2022/03/25 12:40:26;;;;;;;;;0.00;0.00;12.80;99.90;;;;;;5082690;28;11408;-45
2022/03/25 12:43:10;;;;;;;;;0.00;0.00;12.80;99.90;;;;;;5076624;28;11597;-43
2022/03/25 12:45:44;;;;;;;;;0.00;0.00;12.70;99.90;;;;;;5074418;28;12174;-44
2022/03/25 12:48:19;;;;;;;;;0.00;0.00;12.70;99.90;;;;;;5073985;28;11926;-45
2022/03/25 12:50:56;;;;;;;;;0.00;0.00;12.70;99.90;;;;;;5068034;28;11426;-45
2022/03/25 12:53:29;;;;;;;;;0.00;0.00;12.70;99.90;;;;;;5068240;28;11438;-44
2022/03/25 12:56:03;;;;;;;;;0.00;0.00;12.70;99.90;;;;;;5072217;28;11421;-45
2022/03/25 12:58:40;;;;;;;;;0.00;0.00;12.80;99.90;;;;;;5071976;28;11417;-44
2022/03/25 13:01:18;;;;;;;;;0.00;0.00;12.70;99.90;;;;;;5070977;28;11569;-43
2022/03/25 13:03:49;;;;;;;;;0.00;0.00;12.80;99.90;;;;;;5077078;28;11404;-45
2022/03/25 13:06:22;;;;;;;;;0.00;0.00;12.70;99.90;;;;;;5078005;28;11389;-44
2022/03/25 13:09:02;;;;;;;;;0.00;0.00;12.60;99.90;;;;;;5070770;28;11448;-44
2022/03/25 13:11:31;;;;;;;;;0.00;0.00;12.60;99.90;;;;;;5074223;28;12134;-45
2022/03/25 13:14:07;;;;;;;;;0.00;0.00;12.60;99.90;;;;;;5081178;28;11414;-43
2022/03/25 13:16:36;;;;;;;;;0.00;0.00;12.60;99.90;;;;;;5069693;28;11420;-44
2022/03/25 13:19:06;;;;;;;;;0.00;0.00;12.60;99.90;;;;;;5067058;28;11397;-44
2022/03/25 13:21:37;;;;;;;;;0.00;0.00;12.60;99.90;;;;;;5075206;28;11385;-43